F/V Le Natif 2 — FKVW — position and weather

sailwx.info

Track history (hours):
 
Tides and Currents Weather Stations Pressure Air Temp Water Temp Dewpoint Dewpoint Depression Visibility Wind Speed Wind Dir Waves Ship Positions

F/V Le Natif 2

Last reported at 2017-Mar-21 05:14 UTC. Time now 2017-Mar-22 22:20 UTC.
Position N 46°07' W 001°47'.

Length 16 m.

Type: Fishing. MMSI: 228131600.

Date/timePositionNaut miles runAvg speedWind from/ knotsBaromVisibWave heightAir tempDewpointWater temp
2017-Mar-21 05:14N 46°07' W 001°47'6 8.5
2017-Mar-21 04:33N 46°13' W 001°49'9 8.5
2017-Mar-21 03:33N 46°21' W 001°51'8 8.5
2017-Mar-21 02:33N 46°30' W 001°54'8 8.5
2017-Mar-21 01:33N 46°38' W 001°57'3 3.4
2017-Mar-21 00:33N 46°41' W 001°58'9 8.7
2017-Mar-20 23:33N 46°34' W 002°05'9 8.7
2017-Mar-20 22:33N 46°27' W 002°12'26 2.5
2017-Mar-20 12:20N 46°15' W 002°45'3 3.5
2017-Mar-20 11:27N 46°18' W 002°46'11 4.9
2017-Mar-20 09:07N 46°22' W 002°31'6 8.4
2017-Mar-20 08:27N 46°26' W 002°25'9 8.3
2017-Mar-20 07:25N 46°31' W 002°15'7 8.3
2017-Mar-20 06:33N 46°36' W 002°07'9 8.4
2017-Mar-20 05:31N 46°41' W 001°58'0 0.1
2017-Mar-20 03:23N 46°41' W 001°58'34 5.4
2017-Mar-19 21:11N 46°14' W 002°26'25 8.7
2017-Mar-19 18:15N 46°34' W 002°05'6 8.6
2017-Mar-19 17:32N 46°39' W 001°59'  
2017-Mar-17 04:20N 46°42' W 001°56'0 0.1
2017-Mar-17 03:33N 46°42' W 001°57'2 1.9
2017-Mar-17 02:33N 46°40' W 001°58'4 4.3
2017-Mar-17 01:33N 46°36' W 002°01'7 6.7
2017-Mar-17 00:34N 46°30' W 002°05'7 6.6
2017-Mar-16 23:33N 46°24' W 002°09'6 6.1
2017-Mar-16 22:33N 46°19' W 002°14'6 6.2
2017-Mar-16 21:33N 46°14' W 002°19'7 6.8
2017-Mar-16 20:29N 46°12' W 002°29'0 0.4
2017-Mar-16 19:34N 46°12' W 002°30'5 5.2
2017-Mar-16 18:33N 46°07' W 002°29'4 2.0
2017-Mar-16 16:30N 46°07' W 002°35'1 1.3
2017-Mar-16 15:30N 46°08' W 002°34'3 3.3
2017-Mar-16 14:30N 46°09' W 002°29'4 3.5
2017-Mar-16 13:26N 46°05' W 002°28'18 3.8
2017-Mar-16 08:32N 45°46' W 002°29'34 0.9
2017-Mar-14 19:23N 46°14' W 002°01'8 9.5
2017-Mar-14 18:33N 46°21' W 001°57'8 7.7
2017-Mar-14 17:33N 46°29' W 001°54'9 9.2
2017-Mar-14 16:34N 46°38' W 001°56'4 4.0
2017-Mar-14 15:33N 46°42' W 001°56'8 7.9
2017-Mar-14 14:33N 46°34' W 002°00'9 9.1
2017-Mar-14 13:33N 46°25' W 002°03'10 9.3
2017-Mar-14 12:32N 46°16' W 002°06'  
2017-Mar-11 11:30N 45°52' W 001°38'8 8.1
2017-Mar-11 10:33N 45°59' W 001°40'9 8.0
2017-Mar-11 09:25N 46°08' W 001°44'7 8.2
2017-Mar-11 08:33N 46°15' W 001°47'8 8.2
2017-Mar-11 07:33N 46°22' W 001°50'8 8.2
2017-Mar-11 06:33N 46°30' W 001°53'8 8.2
2017-Mar-11 05:33N 46°38' W 001°57'  
Track history (hours):
 
Tides and Currents Weather Stations Pressure Air Temp Water Temp Dewpoint Dewpoint Depression Visibility Wind Speed Wind Dir Waves Ship Positions

F/V Le Natif 2

Last reported at 2017-Mar-21 05:14 UTC. Time now 2017-Mar-22 22:20 UTC.
Position N 46°07' W 001°47'.

Length 16 m.

Type: Fishing. MMSI: 228131600.

Date/timePositionNaut miles runAvg speedWind from/ knotsBaromVisibWave heightAir tempDewpointWater temp
2017-Mar-21 05:14N 46°07' W 001°47'6 8.5
2017-Mar-21 04:33N 46°13' W 001°49'9 8.5
2017-Mar-21 03:33N 46°21' W 001°51'8 8.5
2017-Mar-21 02:33N 46°30' W 001°54'8 8.5
2017-Mar-21 01:33N 46°38' W 001°57'3 3.4
2017-Mar-21 00:33N 46°41' W 001°58'9 8.7
2017-Mar-20 23:33N 46°34' W 002°05'9 8.7
2017-Mar-20 22:33N 46°27' W 002°12'26 2.5
2017-Mar-20 12:20N 46°15' W 002°45'3 3.5
2017-Mar-20 11:27N 46°18' W 002°46'11 4.9
2017-Mar-20 09:07N 46°22' W 002°31'6 8.4
2017-Mar-20 08:27N 46°26' W 002°25'9 8.3
2017-Mar-20 07:25N 46°31' W 002°15'7 8.3
2017-Mar-20 06:33N 46°36' W 002°07'9 8.4
2017-Mar-20 05:31N 46°41' W 001°58'0 0.1
2017-Mar-20 03:23N 46°41' W 001°58'34 5.4
2017-Mar-19 21:11N 46°14' W 002°26'25 8.7
2017-Mar-19 18:15N 46°34' W 002°05'6 8.6
2017-Mar-19 17:32N 46°39' W 001°59'  
2017-Mar-17 04:20N 46°42' W 001°56'0 0.1
2017-Mar-17 03:33N 46°42' W 001°57'2 1.9
2017-Mar-17 02:33N 46°40' W 001°58'4 4.3
2017-Mar-17 01:33N 46°36' W 002°01'7 6.7
2017-Mar-17 00:34N 46°30' W 002°05'7 6.6
2017-Mar-16 23:33N 46°24' W 002°09'6 6.1
2017-Mar-16 22:33N 46°19' W 002°14'6 6.2
2017-Mar-16 21:33N 46°14' W 002°19'7 6.8
2017-Mar-16 20:29N 46°12' W 002°29'0 0.4
2017-Mar-16 19:34N 46°12' W 002°30'5 5.2
2017-Mar-16 18:33N 46°07' W 002°29'4 2.0
2017-Mar-16 16:30N 46°07' W 002°35'1 1.3
2017-Mar-16 15:30N 46°08' W 002°34'3 3.3
2017-Mar-16 14:30N 46°09' W 002°29'4 3.5
2017-Mar-16 13:26N 46°05' W 002°28'18 3.8
2017-Mar-16 08:32N 45°46' W 002°29'34 0.9
2017-Mar-14 19:23N 46°14' W 002°01'8 9.5
2017-Mar-14 18:33N 46°21' W 001°57'8 7.7
2017-Mar-14 17:33N 46°29' W 001°54'9 9.2
2017-Mar-14 16:34N 46°38' W 001°56'4 4.0
2017-Mar-14 15:33N 46°42' W 001°56'8 7.9
2017-Mar-14 14:33N 46°34' W 002°00'9 9.1
2017-Mar-14 13:33N 46°25' W 002°03'10 9.3
2017-Mar-14 12:32N 46°16' W 002°06'  
2017-Mar-11 11:30N 45°52' W 001°38'8 8.1
2017-Mar-11 10:33N 45°59' W 001°40'9 8.0
2017-Mar-11 09:25N 46°08' W 001°44'7 8.2
2017-Mar-11 08:33N 46°15' W 001°47'8 8.2
2017-Mar-11 07:33N 46°22' W 001°50'8 8.2
2017-Mar-11 06:33N 46°30' W 001°53'8 8.2
2017-Mar-11 05:33N 46°38' W 001°57'  

Dump ship's entire track history